Time;durP1;ratioP1;P1;durP2;ratioP2;P2;SDS_P1;SDS_P2;PMS_P1;PMS_P2;Temp;Humidity;BMP_temperature;BMP_pressure;BME280_temperature;BME280_humidity;BME280_pressure;Samples;Min_cycle;Max_cycle;Signal;HPM_P1;HPM_P2
2023/11/03 00:01:24;;;;;;;18.25;2.55;;;8.80;99.90;;;;;;6297984;28;20491;-85
2023/11/03 00:04:26;;;;;;;19.73;3.47;;;8.70;99.90;;;;;;6273529;28;20058;-84
2023/11/03 00:07:30;;;;;;;19.70;3.20;;;8.80;99.30;;;;;;6295957;28;20515;-84
2023/11/03 00:10:32;;;;;;;13.75;2.55;;;8.80;99.30;;;;;;6271743;28;20060;-84
2023/11/03 00:13:33;;;;;;;17.13;3.10;;;8.80;99.30;;;;;;6285348;28;20526;-85
2023/11/03 00:16:35;;;;;;;19.48;3.22;;;8.80;99.00;;;;;;6272914;28;20053;-85
2023/11/03 00:19:37;;;;;;;15.60;2.95;;;8.80;98.40;;;;;;6296697;28;20052;-85
2023/11/03 00:22:38;;;;;;;15.88;2.70;;;8.80;98.30;;;;;;6272377;28;20056;-85
2023/11/03 00:25:40;;;;;;;18.67;2.60;;;8.80;98.80;;;;;;6296948;28;20044;-85
2023/11/03 00:28:42;;;;;;;15.77;2.85;;;8.80;98.40;;;;;;6280920;28;20059;-84
2023/11/03 00:31:45;;;;;;;14.55;2.90;;;8.90;97.90;;;;;;6271472;28;20045;-85
2023/11/03 00:34:47;;;;;;;13.98;2.67;;;8.90;98.10;;;;;;6296971;28;20067;-86
2023/11/03 00:37:49;;;;;;;20.58;2.95;;;8.90;97.80;;;;;;6273581;28;20080;-86
2023/11/03 00:40:51;;;;;;;15.20;2.40;;;8.90;97.50;;;;;;6297673;28;20431;-86
2023/11/03 00:43:53;;;;;;;19.83;3.15;;;8.90;97.30;;;;;;6281694;28;20063;-85
2023/11/03 00:46:54;;;;;;;16.95;2.55;;;8.80;97.80;;;;;;6275663;28;20045;-86
2023/11/03 00:49:56;;;;;;;19.67;2.60;;;8.90;96.90;;;;;;6296829;28;20056;-84
2023/11/03 00:52:57;;;;;;;15.98;3.17;;;8.90;96.80;;;;;;6272320;28;20420;-85
2023/11/03 00:55:59;;;;;;;16.13;2.40;;;8.80;96.60;;;;;;6296686;28;20432;-83
2023/11/03 00:59:02;;;;;;;19.55;3.03;;;8.80;95.80;;;;;;6283019;28;20063;-86
2023/11/03 01:02:04;;;;;;;13.90;2.42;;;8.80;95.80;;;;;;6273459;28;20049;-85
2023/11/03 01:05:06;;;;;;;16.63;2.45;;;8.80;96.00;;;;;;6296019;28;20496;-85
2023/11/03 01:08:08;;;;;;;15.82;2.78;;;8.80;95.50;;;;;;6272562;28;20041;-86
2023/11/03 01:11:09;;;;;;;20.52;3.10;;;8.80;95.70;;;;;;6296192;28;20048;-86
2023/11/03 01:14:11;;;;;;;21.23;2.92;;;8.70;95.90;;;;;;6280060;28;20056;-86
2023/11/03 01:17:16;;;;;;;16.17;2.70;;;8.70;96.90;;;;;;6273211;28;20409;-86
2023/11/03 01:20:27;;;;;;;16.60;2.58;;;8.70;96.30;;;;;;6291439;28;20504;-86
2023/11/03 01:23:29;;;;;;;22.05;2.78;;;8.70;96.00;;;;;;6272572;28;20489;-88
2023/11/03 01:26:31;;;;;;;19.50;2.83;;;8.60;96.40;;;;;;6295553;28;20142;-88
2023/11/03 01:29:33;;;;;;;17.45;3.15;;;8.70;96.20;;;;;;6280303;28;20447;-88
2023/11/03 01:32:35;;;;;;;20.27;2.88;;;8.60;96.20;;;;;;6295760;28;20051;-88
2023/11/03 01:35:37;;;;;;;15.40;2.55;;;8.60;96.40;;;;;;6271573;28;20049;-88
2023/11/03 01:38:39;;;;;;;16.75;2.88;;;8.60;96.50;;;;;;6295508;28;20052;-87
2023/11/03 01:41:40;;;;;;;17.20;2.15;;;8.60;95.70;;;;;;6271300;28;20053;-88
2023/11/03 01:44:44;;;;;;;14.75;2.30;;;8.60;95.40;;;;;;6274682;28;20053;-88
2023/11/03 01:47:46;;;;;;;18.42;3.28;;;8.70;96.00;;;;;;6295418;28;20131;-88
2023/11/03 01:50:48;;;;;;;18.35;2.75;;;8.70;95.80;;;;;;6272786;28;20499;-87
2023/11/03 01:53:50;;;;;;;14.10;2.60;;;8.70;95.30;;;;;;6296085;28;20048;-85
2023/11/03 01:56:52;;;;;;;21.27;2.70;;;8.70;95.00;;;;;;6272573;28;20056;-87
2023/11/03 01:59:53;;;;;;;15.90;2.70;;;8.60;95.30;;;;;;6291257;28;20185;-86
2023/11/03 02:02:55;;;;;;;19.52;2.83;;;8.60;95.60;;;;;;6272335;28;20057;-87
2023/11/03 02:05:57;;;;;;;14.75;2.63;;;8.60;95.70;;;;;;6297084;28;20052;-85
2023/11/03 02:08:59;;;;;;;12.90;2.70;;;8.70;95.10;;;;;;6271496;28;20135;-86
2023/11/03 02:12:00;;;;;;;19.10;3.00;;;8.70;93.30;;;;;;6294719;28;20052;-86
2023/11/03 02:15:05;;;;;;;18.20;2.72;;;8.70;94.00;;;;;;6269580;28;20068;-86
2023/11/03 02:18:09;;;;;;;15.70;2.67;;;8.70;94.10;;;;;;6293464;28;20055;-86
2023/11/03 02:21:12;;;;;;;20.63;3.22;;;8.70;94.00;;;;;;6282231;28;20060;-87
2023/11/03 02:24:14;;;;;;;15.30;2.10;;;8.70;93.90;;;;;;6270173;28;20049;-85
2023/11/03 02:27:15;;;;;;;26.08;4.05;;;8.70;93.80;;;;;;6293089;28;20135;-85
2023/11/03 02:30:17;;;;;;;13.52;2.13;;;8.70;94.90;;;;;;6276126;28;20060;-85
2023/11/03 02:33:19;;;;;;;16.67;2.47;;;8.60;93.50;;;;;;6270183;28;20079;-85
2023/11/03 02:36:20;;;;;;;23.55;2.75;;;8.70;94.20;;;;;;6294435;28;20407;-86
2023/11/03 02:39:22;;;;;;;16.08;2.78;;;8.60;93.60;;;;;;6270565;28;20053;-85
2023/11/03 02:42:23;;;;;;;13.95;2.55;;;8.60;93.50;;;;;;6293487;28;20415;-85
2023/11/03 02:45:25;;;;;;;13.27;2.60;;;8.60;93.50;;;;;;6267234;28;20416;-85
2023/11/03 02:48:27;;;;;;;13.85;2.30;;;8.70;93.90;;;;;;6294134;28;20059;-85
2023/11/03 02:51:28;;;;;;;18.75;2.35;;;8.60;93.50;;;;;;6274131;28;20041;-84
2023/11/03 02:54:30;;;;;;;16.67;2.15;;;8.60;94.40;;;;;;6298846;28;20118;-86
2023/11/03 02:57:32;;;;;;;16.08;2.58;;;8.60;93.70;;;;;;6278033;28;20045;-85
2023/11/03 03:00:33;;;;;;;13.13;2.08;;;8.50;93.70;;;;;;6281450;28;20526;-85
2023/11/03 03:03:35;;;;;;;23.58;3.00;;;8.50;93.50;;;;;;6297293;28;20059;-85
2023/11/03 03:06:37;;;;;;;12.52;2.25;;;8.50;93.40;;;;;;6280515;28;20052;-86
2023/11/03 03:09:38;;;;;;;15.77;2.63;;;8.50;93.50;;;;;;6304986;28;20052;-85
2023/11/03 03:12:41;;;;;;;14.90;2.03;;;8.50;93.40;;;;;;6277085;28;20053;-85
2023/11/03 03:15:43;;;;;;;17.90;2.92;;;8.50;93.10;;;;;;6248571;28;20062;-85
2023/11/03 03:18:46;;;;;;;17.33;2.60;;;8.40;93.40;;;;;;6245010;28;20391;-84
2023/11/03 03:21:48;;;;;;;15.65;2.28;;;8.40;93.50;;;;;;6272486;28;20052;-85
2023/11/03 03:24:50;;;;;;;14.57;2.20;;;8.30;93.20;;;;;;6294500;28;20083;-85
2023/11/03 03:27:53;;;;;;;16.80;3.15;;;8.30;92.90;;;;;;6269824;28;20159;-83
2023/11/03 03:30:55;;;;;;;12.63;2.17;;;8.30;92.80;;;;;;6290805;28;20224;-84
2023/11/03 03:33:56;;;;;;;16.85;2.80;;;8.40;93.10;;;;;;6242263;28;20045;-83
2023/11/03 03:36:59;;;;;;;14.60;2.08;;;8.40;92.30;;;;;;6292270;28;20080;-84
2023/11/03 03:40:01;;;;;;;14.60;2.45;;;8.40;92.80;;;;;;6268767;28;20052;-84
2023/11/03 03:43:02;;;;;;;18.33;2.30;;;8.30;92.60;;;;;;6289239;28;20052;-83
2023/11/03 03:46:04;;;;;;;12.15;2.40;;;8.30;92.80;;;;;;6268292;28;20059;-83
2023/11/03 03:49:06;;;;;;;10.07;2.10;;;8.30;93.10;;;;;;6292431;28;20048;-83
2023/11/03 03:52:07;;;;;;;14.60;2.28;;;8.30;92.60;;;;;;6268658;28;20158;-83
2023/11/03 03:55:09;;;;;;;12.90;2.28;;;8.30;92.60;;;;;;6292551;28;20052;-83
2023/11/03 03:58:11;;;;;;;13.63;2.30;;;8.30;92.60;;;;;;6269440;28;20056;-84
2023/11/03 04:01:12;;;;;;;14.43;2.28;;;8.30;92.00;;;;;;6293053;28;20048;-82
2023/11/03 04:04:14;;;;;;;15.50;2.88;;;8.30;92.50;;;;;;6269759;28;20060;-82
2023/11/03 04:07:16;;;;;;;18.10;2.78;;;8.20;92.60;;;;;;6293962;28;20048;-83
2023/11/03 04:10:18;;;;;;;15.80;2.33;;;8.20;93.30;;;;;;6271399;28;20053;-83
2023/11/03 04:13:19;;;;;;;13.75;2.00;;;8.20;93.30;;;;;;6285963;28;20049;-83
2023/11/03 04:16:21;;;;;;;22.55;2.60;;;8.20;93.10;;;;;;6266453;28;20092;-82
2023/11/03 04:19:23;;;;;;;17.10;2.85;;;8.20;93.30;;;;;;6292024;28;20053;-83
2023/11/03 04:22:24;;;;;;;14.60;2.20;;;8.20;92.90;;;;;;6290384;28;20057;-83
2023/11/03 04:25:26;;;;;;;14.40;2.08;;;8.20;93.00;;;;;;6268303;28;20076;-83
2023/11/03 04:28:28;;;;;;;15.10;1.85;;;8.20;92.80;;;;;;6282845;28;20055;-82
2023/11/03 04:31:29;;;;;;;15.98;2.03;;;8.20;92.60;;;;;;6271074;28;20056;-84
2023/11/03 04:34:31;;;;;;;17.92;2.38;;;8.20;93.10;;;;;;6296409;28;20053;-84
2023/11/03 04:37:33;;;;;;;12.60;2.33;;;8.10;93.40;;;;;;6272763;28;20067;-82
2023/11/03 04:40:35;;;;;;;16.17;2.35;;;8.10;92.70;;;;;;6296629;28;20515;-82
2023/11/03 04:46:49;;;;;;;16.25;2.10;;;8.10;93.20;;;;;;6224099;28;20053;-90
2023/11/03 04:49:50;;;;;;;13.45;2.25;;;8.10;93.20;;;;;;6240412;28;20063;-92
2023/11/03 04:52:52;;;;;;;12.85;2.33;;;8.00;93.40;;;;;;6224931;28;20061;-91
2023/11/03 04:55:54;;;;;;;11.98;1.75;;;8.00;93.40;;;;;;6233335;28;20395;-89
2023/11/03 04:58:55;;;;;;;12.32;1.85;;;8.10;92.70;;;;;;6223915;28;20061;-91
2023/11/03 05:01:57;;;;;;;13.73;2.22;;;8.00;93.40;;;;;;6212724;28;20399;-91
2023/11/03 05:04:59;;;;;;;18.05;2.08;;;8.00;93.70;;;;;;6224901;28;20619;-91
2023/11/03 05:08:00;;;;;;;16.17;2.00;;;8.00;93.40;;;;;;6228183;28;20563;-93
2023/11/03 05:11:02;;;;;;;12.18;2.25;;;8.00;93.40;;;;;;6230287;28;20061;-92
2023/11/03 05:14:05;;;;;;;13.35;2.03;;;8.00;93.40;;;;;;6233415;28;20060;-91
2023/11/03 05:17:07;;;;;;;13.60;2.42;;;8.00;93.40;;;;;;6230525;28;20120;-92
2023/11/03 05:20:09;;;;;;;13.65;2.17;;;8.00;93.40;;;;;;6227619;28;20053;-89
2023/11/03 05:23:10;;;;;;;13.63;2.00;;;8.00;93.40;;;;;;6227646;28;20048;-93
2023/11/03 05:26:13;;;;;;;10.63;2.13;;;7.90;93.30;;;;;;6227424;28;20050;-91
2023/11/03 05:29:16;;;;;;;13.82;1.83;;;7.90;93.50;;;;;;6224387;28;20050;-92
2023/11/03 05:32:27;;;;;;;14.13;2.15;;;7.90;93.40;;;;;;6200661;28;20057;-91
2023/11/03 05:35:29;;;;;;;11.57;1.70;;;7.90;93.40;;;;;;6224474;28;20485;-91
2023/11/03 05:38:30;;;;;;;16.83;2.40;;;8.00;93.50;;;;;;6227287;28;20046;-93
2023/11/03 05:41:32;;;;;;;11.15;1.83;;;8.00;93.40;;;;;;6225542;28;20394;-91
2023/11/03 05:44:34;;;;;;;11.52;1.85;;;7.90;93.30;;;;;;6223719;28;20433;-91
2023/11/03 05:47:35;;;;;;;14.27;2.38;;;7.90;93.40;;;;;;6226940;28;20054;-90
2023/11/03 05:50:37;;;;;;;14.07;2.05;;;8.00;93.80;;;;;;6227554;28;20054;-91
2023/11/03 05:53:39;;;;;;;16.98;2.58;;;7.90;93.60;;;;;;6227472;28;20057;-91
2023/11/03 05:56:40;;;;;;;16.10;2.38;;;7.90;93.50;;;;;;6227047;28;20046;-93
2023/11/03 05:59:42;;;;;;;10.10;1.90;;;7.90;94.10;;;;;;6225491;28;20057;-90
2023/11/03 06:02:44;;;;;;;14.20;2.10;;;7.90;93.40;;;;;;6226771;28;20045;-91
2023/11/03 06:05:46;;;;;;;12.77;1.80;;;8.00;93.50;;;;;;6225050;28;20060;-91
2023/11/03 06:08:48;;;;;;;12.98;2.00;;;7.90;93.80;;;;;;6225872;28;20054;-91
2023/11/03 06:11:50;;;;;;;12.30;1.92;;;7.90;93.40;;;;;;6225858;28;20057;-91
2023/11/03 06:14:52;;;;;;;10.80;1.63;;;7.90;93.80;;;;;;6223891;28;20046;-92
2023/11/03 06:17:53;;;;;;;16.83;2.28;;;7.90;93.90;;;;;;6226711;28;20054;-92
2023/11/03 06:20:55;;;;;;;15.57;2.20;;;7.90;93.70;;;;;;6226506;28;20048;-91
2023/11/03 06:23:57;;;;;;;17.73;2.17;;;7.80;94.00;;;;;;6226057;28;20056;-91
2023/11/03 06:26:59;;;;;;;17.92;2.20;;;7.90;93.70;;;;;;6225888;28;20129;-92
2023/11/03 06:30:01;;;;;;;12.02;1.80;;;7.80;94.10;;;;;;6223931;28;20054;-92
2023/11/03 06:33:04;;;;;;;15.05;2.00;;;7.90;93.50;;;;;;6226343;28;20073;-92
2023/11/03 06:36:06;;;;;;;14.88;1.58;;;7.90;93.40;;;;;;6226943;28;20081;-92
2023/11/03 06:39:07;;;;;;;12.93;2.15;;;7.90;93.50;;;;;;6226974;28;20045;-92
2023/11/03 06:42:09;;;;;;;14.18;1.83;;;7.90;93.30;;;;;;6226100;28;20054;-89
2023/11/03 06:45:12;;;;;;;13.27;1.70;;;8.00;93.40;;;;;;6223620;28;20061;-90
2023/11/03 06:48:15;;;;;;;8.73;1.92;;;8.00;93.30;;;;;;6228392;28;20100;-91
2023/11/03 06:51:17;;;;;;;11.63;1.77;;;8.00;93.40;;;;;;6225962;28;20053;-92
2023/11/03 06:54:19;;;;;;;14.45;2.58;;;8.00;93.40;;;;;;6226191;28;20050;-92
2023/11/03 06:57:20;;;;;;;12.10;1.75;;;7.90;93.50;;;;;;6224629;28;20436;-88
2023/11/03 07:00:25;;;;;;;12.82;1.73;;;8.00;93.50;;;;;;6222760;28;20050;-89
2023/11/03 07:03:27;;;;;;;11.25;1.83;;;8.00;93.40;;;;;;6223058;28;20417;-88
2023/11/03 07:06:28;;;;;;;11.85;1.67;;;8.00;93.40;;;;;;6221945;28;20061;-90
2023/11/03 07:09:31;;;;;;;9.57;1.42;;;8.00;93.20;;;;;;6225936;28;20127;-90
2023/11/03 07:12:33;;;;;;;10.00;1.88;;;8.10;93.10;;;;;;6228200;28;20478;-91
2023/11/03 07:15:36;;;;;;;10.32;1.55;;;8.10;93.00;;;;;;6224437;28;20059;-89
2023/11/03 07:18:38;;;;;;;11.13;1.52;;;8.20;92.30;;;;;;6225127;28;20112;-90
2023/11/03 07:21:39;;;;;;;10.30;1.40;;;8.30;92.20;;;;;;6225665;28;20497;-88
2023/11/03 07:24:42;;;;;;;10.75;1.60;;;8.30;92.60;;;;;;6225641;28;20058;-91
2023/11/03 07:27:44;;;;;;;14.57;1.35;;;8.30;92.70;;;;;;6230847;28;20062;-84
2023/11/03 07:30:45;;;;;;;9.95;1.42;;;8.40;92.20;;;;;;6229421;28;20540;-91
2023/11/03 07:33:47;;;;;;;8.20;1.48;;;8.50;92.30;;;;;;6226949;28;20135;-91
2023/11/03 07:36:49;;;;;;;6.43;1.40;;;8.30;92.00;;;;;;6228307;28;20053;-91
2023/11/03 07:39:51;;;;;;;8.00;1.40;;;8.70;91.30;;;;;;6231098;28;20137;-90
2023/11/03 07:42:53;;;;;;;7.78;1.20;;;8.90;91.90;;;;;;6230518;28;20056;-90
2023/11/03 07:45:55;;;;;;;9.23;1.83;;;9.00;91.50;;;;;;6231373;28;20062;-91
2023/11/03 07:48:57;;;;;;;8.85;1.30;;;9.10;91.00;;;;;;6224980;28;20053;-90
2023/11/03 07:51:58;;;;;;;5.72;1.17;;;9.20;90.40;;;;;;6226838;28;20053;-90
2023/11/03 07:55:01;;;;;;;6.38;0.80;;;9.30;90.00;;;;;;6225207;28;20096;-89
2023/11/03 07:58:05;;;;;;;11.05;1.27;;;9.30;90.50;;;;;;6221920;28;20524;-88
2023/11/03 08:01:09;;;;;;;13.15;1.25;;;9.50;88.30;;;;;;6223491;28;20057;-90
2023/11/03 08:04:11;;;;;;;5.00;1.35;;;9.60;90.20;;;;;;6201268;28;20050;-89
2023/11/03 08:07:13;;;;;;;8.38;1.05;;;9.70;87.70;;;;;;6225912;28;20628;-87
2023/11/03 08:10:15;;;;;;;8.65;1.00;;;9.80;87.80;;;;;;6228466;28;20050;-88
2023/11/03 08:13:17;;;;;;;5.97;1.00;;;;;;;;;;6227271;28;20512;-92
2023/11/03 08:16:19;;;;;;;8.18;0.90;;;10.40;78.70;;;;;;6226432;28;20060;-87
2023/11/03 08:19:21;;;;;;;7.07;1.33;;;10.50;81.70;;;;;;6205562;28;20061;-91
2023/11/03 08:22:23;;;;;;;7.18;1.00;;;10.50;80.10;;;;;;6244994;28;20053;-89
2023/11/03 08:25:25;;;;;;;6.85;1.25;;;10.40;81.70;;;;;;6230919;28;20104;-91
2023/11/03 08:28:27;;;;;;;6.10;0.80;;;10.40;77.70;;;;;;6226753;28;20680;-90
2023/11/03 08:31:30;;;;;;;9.23;1.10;;;;;;;;;;6227413;28;20054;-88
2023/11/03 08:34:31;;;;;;;10.02;1.30;;;10.50;83.80;;;;;;6228100;28;20172;-85
2023/11/03 08:37:33;;;;;;;9.63;1.10;;;11.00;83.10;;;;;;6222676;28;20077;-85
2023/11/03 08:40:35;;;;;;;5.15;0.90;;;10.60;77.60;;;;;;6227174;28;20045;-90
2023/11/03 08:43:37;;;;;;;4.70;0.90;;;;;;;;;;6227444;28;20124;-87
2023/11/03 08:46:40;;;;;;;15.10;1.58;;;9.90;84.70;;;;;;6228279;28;20096;-90
2023/11/03 08:49:42;;;;;;;4.50;0.80;;;10.70;79.10;;;;;;6222205;28;20559;-81
2023/11/03 08:52:47;;;;;;;6.53;1.10;;;10.70;77.90;;;;;;6222782;28;20058;-82
2023/11/03 08:55:48;;;;;;;8.90;1.15;;;10.70;76.90;;;;;;6224535;28;20115;-88
2023/11/03 08:58:54;;;;;;;3.28;0.65;;;10.70;77.60;;;;;;6224138;28;20057;-85
2023/11/03 09:01:56;;;;;;;4.20;1.13;;;10.70;77.50;;;;;;6227364;28;20050;-84
2023/11/03 09:04:58;;;;;;;4.93;1.10;;;10.70;74.90;;;;;;6220787;28;20545;-81
2023/11/03 09:08:00;;;;;;;8.90;1.02;;;10.80;81.70;;;;;;6224677;28;20050;-78
2023/11/03 09:11:01;;;;;;;9.82;1.30;;;10.90;79.80;;;;;;6223259;28;20060;-86
2023/11/03 09:14:06;;;;;;;7.40;1.00;;;10.90;78.60;;;;;;6220105;28;20145;-83
2023/11/03 09:17:08;;;;;;;6.38;1.08;;;10.90;76.40;;;;;;6226884;28;20050;-87
2023/11/03 09:20:10;;;;;;;7.53;1.17;;;11.10;80.50;;;;;;6224691;28;20065;-82
2023/11/03 09:23:11;;;;;;;5.95;0.90;;;11.10;76.50;;;;;;6226643;28;20167;-85
2023/11/03 09:26:13;;;;;;;7.72;1.58;;;11.30;77.90;;;;;;6225215;28;20050;-85
2023/11/03 09:29:15;;;;;;;4.30;0.90;;;11.50;74.50;;;;;;6219691;28;20200;-83
2023/11/03 09:32:17;;;;;;;2.88;0.60;;;11.50;75.10;;;;;;6229934;28;20058;-92
2023/11/03 09:35:18;;;;;;;7.32;1.05;;;11.60;77.30;;;;;;6205558;28;20046;-87
2023/11/03 09:38:20;;;;;;;5.88;1.05;;;11.90;76.20;;;;;;6228168;28;20521;-87
2023/11/03 09:41:22;;;;;;;3.05;0.80;;;12.00;68.10;;;;;;6222118;28;20053;-84
2023/11/03 09:44:24;;;;;;;1.40;0.50;;;12.00;64.60;;;;;;6234535;22;20056;-87
2023/11/03 09:47:28;;;;;;;5.20;1.35;;;12.10;65.90;;;;;;6231067;28;20139;-88
2023/11/03 09:50:30;;;;;;;7.65;0.95;;;12.30;68.60;;;;;;6246919;28;20111;-83
2023/11/03 09:53:32;;;;;;;3.85;0.77;;;12.30;63.70;;;;;;6222826;28;20061;-88
2023/11/03 09:56:33;;;;;;;11.18;2.55;;;12.30;63.00;;;;;;6244990;28;20053;-86
2023/11/03 09:59:35;;;;;;;7.18;0.90;;;12.20;70.90;;;;;;6233448;28;20497;-86
2023/11/03 10:02:37;;;;;;;6.05;1.00;;;12.20;69.40;;;;;;6221331;28;20057;-81
2023/11/03 10:05:38;;;;;;;3.72;1.10;;;12.30;69.40;;;;;;6245022;28;20140;-83
2023/11/03 10:08:40;;;;;;;4.50;1.10;;;12.50;71.50;;;;;;6244924;28;20560;-82
2023/11/03 10:11:42;;;;;;;9.18;1.45;;;12.70;72.30;;;;;;6220840;28;20064;-83
2023/11/03 10:14:46;;;;;;;4.72;0.85;;;12.80;68.70;;;;;;6240617;28;20061;-83
2023/11/03 10:17:48;;;;;;;3.40;0.75;;;12.80;63.90;;;;;;6219735;28;20053;-82
2023/11/03 10:20:50;;;;;;;4.45;0.80;;;;;;;;;;6220241;28;20168;-82
2023/11/03 10:23:51;;;;;;;5.18;0.90;;;12.70;65.90;;;;;;6219882;28;20096;-82
2023/11/03 10:26:53;;;;;;;8.35;1.35;;;12.70;64.60;;;;;;6259504;28;20033;-95
2023/11/03 10:29:55;;;;;;;4.93;1.08;;;12.90;72.90;;;;;;6223775;28;20065;-84
2023/11/03 10:32:56;;;;;;;4.13;0.90;;;12.60;62.40;;;;;;6243600;28;20387;-81
2023/11/03 10:35:58;;;;;;;9.95;0.88;;;13.10;53.70;;;;;;6221116;28;20115;-82
2023/11/03 10:39:00;;;;;;;5.40;1.15;;;13.10;53.10;;;;;;6243359;28;20053;-83
2023/11/03 10:42:02;;;;;;;3.65;0.70;;;13.60;64.80;;;;;;6220162;28;20065;-85
2023/11/03 10:45:04;;;;;;;4.30;0.85;;;13.70;54.10;;;;;;6240055;28;20053;-81
2023/11/03 10:48:06;;;;;;;5.50;0.82;;;13.90;50.90;;;;;;6226035;28;20054;-88
2023/11/03 10:51:08;;;;;;;3.47;0.70;;;13.80;43.80;;;;;;6235144;28;20049;-81
2023/11/03 10:54:11;;;;;;;3.22;0.80;;;13.60;53.00;;;;;;6222280;28;20069;-83
2023/11/03 10:57:13;;;;;;;6.93;1.00;;;13.70;60.40;;;;;;6228209;28;20125;-82
2023/11/03 11:00:34;;;;;;;5.65;1.00;;;13.80;48.90;;;;;;6212375;28;20272;-83
2023/11/03 11:03:36;;;;;;;4.72;0.80;;;13.70;40.90;;;;;;6243293;28;20057;-82
2023/11/03 11:06:38;;;;;;;4.88;0.90;;;13.60;51.20;;;;;;6219233;28;20050;-81
2023/11/03 11:09:39;;;;;;;5.47;1.02;;;13.50;53.90;;;;;;6218975;28;20405;-86
2023/11/03 11:12:41;;;;;;;7.68;1.10;;;13.50;43.70;;;;;;6202368;28;20441;-86
2023/11/03 11:15:42;;;;;;;5.75;1.30;;;13.80;60.60;;;;;;6243845;28;20060;-85
2023/11/03 11:18:44;;;;;;;5.32;0.90;;;14.10;43.10;;;;;;6220882;28;20050;-90
2023/11/03 11:21:46;;;;;;;3.88;1.00;;;14.30;26.30;;;;;;6229429;28;20132;-90
2023/11/03 11:24:48;;;;;;;4.63;1.10;;;;;;;;;;6247609;28;20060;-94
2023/11/03 11:27:49;;;;;;;6.18;0.88;;;14.50;49.80;;;;;;6232911;28;20053;-90
2023/11/03 11:30:51;;;;;;;5.00;1.02;;;14.80;22.80;;;;;;6241290;28;20065;-91
2023/11/03 11:33:56;;;;;;;7.25;1.30;;;15.00;18.40;;;;;;6226732;28;20053;-93
2023/11/03 11:36:59;;;;;;;4.25;1.10;;;15.70;7.70;;;;;;6250224;28;20121;-94
2023/11/03 11:40:01;;;;;;;3.80;0.93;;;;;;;;;;6228769;28;20513;-93
2023/11/03 11:43:04;;;;;;;6.30;1.13;;;;;;;;;;6248699;28;20061;-89
2023/11/03 11:46:21;;;;;;;5.05;1.08;;;;;;;;;;6250360;28;20513;-90
2023/11/03 11:49:23;;;;;;;5.22;0.90;;;16.60;1.00;;;;;;6229145;28;20137;-90
2023/11/03 11:52:28;;;;;;;6.03;0.95;;;16.70;1.00;;;;;;6261094;28;20057;-90
2023/11/03 11:55:31;;;;;;;3.90;1.00;;;16.00;1.00;;;;;;6244888;28;20058;-89
2023/11/03 11:58:32;;;;;;;6.07;1.00;;;15.60;1.00;;;;;;6247304;28;20061;-88
2023/11/03 12:01:34;;;;;;;5.03;0.93;;;15.50;1.00;;;;;;6233551;28;20064;-91
2023/11/03 12:04:36;;;;;;;5.95;1.05;;;;;;;;;;6256586;28;20060;-91
2023/11/03 12:07:39;;;;;;;5.10;0.98;;;;;;;;;;6229907;28;20056;-91
2023/11/03 12:10:41;;;;;;;3.92;1.00;;;;;;;;;;6251254;28;20042;-92
2023/11/03 12:13:47;;;;;;;3.55;1.10;;;;;;;;;;6235459;28;20053;-92
2023/11/03 12:16:49;;;;;;;5.03;1.17;;;15.30;1.00;;;;;;6231574;28;20113;-91
2023/11/03 12:19:50;;;;;;;5.95;1.00;;;15.30;1.00;;;;;;6257579;28;20056;-91
2023/11/03 12:22:52;;;;;;;5.68;0.90;;;15.60;1.00;;;;;;6210549;28;20050;-91
2023/11/03 12:25:58;;;;;;;5.53;1.00;;;;;;;;;;6253735;28;20425;-90
2023/11/03 12:28:59;;;;;;;4.18;0.90;;;16.50;1.00;;;;;;6232016;28;20055;-90
2023/11/03 12:32:01;;;;;;;5.22;1.00;;;16.40;1.00;;;;;;6227414;28;20054;-89
2023/11/03 12:35:03;;;;;;;4.10;1.17;;;16.30;1.00;;;;;;6249665;28;20069;-90
2023/11/03 12:38:05;;;;;;;7.25;1.10;;;16.90;1.00;;;;;;6209977;28;20053;-90
2023/11/03 12:41:07;;;;;;;7.00;1.20;;;17.40;1.00;;;;;;6250218;28;20140;-86
2023/11/03 12:44:09;;;;;;;3.78;1.13;;;16.80;1.00;;;;;;6219869;28;20081;-87
2023/11/03 12:47:10;;;;;;;7.45;1.23;;;17.30;1.00;;;;;;6247298;28;20068;-87
2023/11/03 12:50:16;;;;;;;7.43;1.08;;;17.10;1.00;;;;;;6230313;28;20049;-92
2023/11/03 12:53:18;;;;;;;3.53;0.80;;;16.80;1.00;;;;;;6242456;28;20159;-90
2023/11/03 12:56:20;;;;;;;5.45;0.90;;;16.30;1.00;;;;;;6232211;28;20045;-90
2023/11/03 12:59:22;;;;;;;5.47;1.08;;;15.00;1.00;;;;;;6217741;28;20065;-90
2023/11/03 13:02:26;;;;;;;4.43;0.80;;;16.50;1.00;;;;;;6227326;28;20057;-90
2023/11/03 13:05:28;;;;;;;6.53;1.30;;;16.30;1.00;;;;;;6232273;28;20140;-90
2023/11/03 13:08:30;;;;;;;4.30;0.90;;;16.50;1.00;;;;;;6208578;28;20121;-90
2023/11/03 13:11:33;;;;;;;5.57;0.82;;;16.00;1.00;;;;;;6250014;28;20501;-91
2023/11/03 13:14:35;;;;;;;6.72;1.00;;;15.60;1.00;;;;;;6220856;28;20058;-91
2023/11/03 13:17:38;;;;;;;3.58;0.90;;;15.30;1.00;;;;;;6247796;28;20051;-91
2023/11/03 13:20:40;;;;;;;3.30;0.68;;;15.00;1.00;;;;;;6249153;28;20454;-90
2023/11/03 13:23:42;;;;;;;5.63;1.27;;;15.10;1.00;;;;;;6248660;28;20072;-90
2023/11/03 13:26:44;;;;;;;5.22;0.80;;;15.00;1.00;;;;;;6224465;28;20064;-87
2023/11/03 13:29:46;;;;;;;4.28;0.80;;;;;;;;;;6239835;28;20366;-92
2023/11/03 13:32:51;;;;;;;6.03;0.88;;;15.20;33.90;;;;;;6224460;28;20060;-84
2023/11/03 13:35:53;;;;;;;3.20;0.80;;;;;;;;;;6206762;28;20402;-92
2023/11/03 13:38:56;;;;;;;2.58;0.82;;;;;;;;;;6232412;28;20421;-92
2023/11/03 13:41:58;;;;;;;6.05;0.95;;;;;;;;;;6233326;28;20045;-92
2023/11/03 13:45:00;;;;;;;2.83;0.80;;;;;;;;;;6253841;28;20053;-92
2023/11/03 13:48:03;;;;;;;3.60;0.90;;;;;;;;;;6229763;28;20596;-88
2023/11/03 13:51:07;;;;;;;5.55;1.08;;;;;;;;;;6253673;28;20084;-86
2023/11/03 13:54:09;;;;;;;2.33;0.65;;;;;;;;;;6237044;28;20046;-86
2023/11/03 13:57:11;;;;;;;2.53;0.80;;;;;;;;;;6265845;28;20052;-88
2023/11/03 14:00:13;;;;;;;2.25;0.80;;;;;;;;;;6221500;28;20265;-89
2023/11/03 14:03:16;;;;;;;3.67;0.82;;;;;;;;;;6245533;28;20051;-86
2023/11/03 14:06:18;;;;;;;4.05;0.98;;;;;;;;;;6233406;28;20050;-88
2023/11/03 14:09:25;;;;;;;4.38;0.98;;;;;;;;;;6248236;28;20142;-90
2023/11/03 14:12:27;;;;;;;6.93;1.10;;;;;;;;;;6248287;28;20042;-90
2023/11/03 14:15:30;;;;;;;3.92;0.77;;;;;;;;;;6267395;28;20060;-93
2023/11/03 14:18:32;;;;;;;4.30;1.00;;;;;;;;;;6256724;28;20051;-93
2023/11/03 14:21:35;;;;;;;3.25;0.77;;;;;;;;;;6239579;28;20046;-92
2023/11/03 14:24:37;;;;;;;3.00;0.88;;;;;;;;;;6238267;28;20050;-92
2023/11/03 14:27:39;;;;;;;1.48;0.63;;;;;;;;;;6229998;28;20057;-94
2023/11/03 14:30:41;;;;;;;1.98;0.70;;;;;;;;;;6230717;28;20140;-93
2023/11/03 14:33:44;;;;;;;3.15;0.90;;;15.90;1.00;;;;;;6231432;28;20060;-93
2023/11/03 14:36:46;;;;;;;4.45;0.90;;;15.60;1.00;;;;;;6244841;28;20073;-93
2023/11/03 14:39:48;;;;;;;4.00;0.88;;;15.10;1.00;;;;;;6250969;28;20489;-93
2023/11/03 14:42:50;;;;;;;3.60;0.70;;;;;;;;;;6217691;28;20034;-92
2023/11/03 14:45:52;;;;;;;2.10;0.70;;;14.50;1.00;;;;;;6230333;28;20062;-91
2023/11/03 14:48:54;;;;;;;4.32;1.02;;;;;;;;;;6251318;28;20064;-94
2023/11/03 14:51:56;;;;;;;6.40;0.90;;;14.00;33.70;;;;;;6229999;28;20053;-92
2023/11/03 14:54:58;;;;;;;4.97;0.90;;;;;;;;;;6253251;28;20076;-92
2023/11/03 14:58:00;;;;;;;5.47;0.95;;;;;;;;;;6212179;28;20057;-87
2023/11/03 15:01:03;;;;;;;7.40;1.42;;;;;;;;;;6253494;28;20187;-92
2023/11/03 15:04:05;;;;;;;5.22;1.10;;;;;;;;;;6236771;28;20068;-91
2023/11/03 15:07:09;;;;;;;7.13;1.27;;;;;;;;;;6264187;28;20064;-90
2023/11/03 15:10:11;;;;;;;2.95;0.93;;;;;;;;;;6214135;28;20117;-91
2023/11/03 15:13:15;;;;;;;8.63;1.50;;;;;;;;;;6227685;28;20080;-90
2023/11/03 15:16:19;;;;;;;4.68;1.42;;;;;;;;;;6234886;28;20073;-91
2023/11/03 15:19:21;;;;;;;7.82;1.42;;;;;;;;;;6233470;28;20058;-91
2023/11/03 15:22:23;;;;;;;10.68;1.27;;;;;;;;;;6249883;28;20061;-89
2023/11/03 15:25:26;;;;;;;7.25;1.27;;;;;;;;;;6209439;28;20049;-91
2023/11/03 15:28:28;;;;;;;3.90;0.90;;;13.60;83.70;;;;;;6241816;28;20104;-91
2023/11/03 15:31:30;;;;;;;5.30;1.20;;;13.50;75.30;;;;;;6223410;28;20052;-91
2023/11/03 15:34:32;;;;;;;7.07;1.40;;;;;;;;;;6248305;28;20186;-90
2023/11/03 15:37:34;;;;;;;8.43;1.48;;;13.30;73.00;;;;;;6225577;28;20053;-90
2023/11/03 15:40:37;;;;;;;7.22;1.50;;;13.20;76.80;;;;;;6248262;28;20099;-90
2023/11/03 15:43:40;;;;;;;6.03;1.38;;;;;;;;;;6229774;28;20055;-92
2023/11/03 15:46:41;;;;;;;6.70;1.20;;;13.00;94.40;;;;;;6248480;28;20053;-92
2023/11/03 15:49:44;;;;;;;7.90;1.00;;;;;;;;;;6224442;28;20058;-87
2023/11/03 15:52:45;;;;;;;9.27;1.75;;;12.20;92.70;;;;;;6244487;28;20120;-88
2023/11/03 15:55:48;;;;;;;8.38;1.85;;;;;;;;;;6224291;28;20061;-87
2023/11/03 15:58:50;;;;;;;8.02;1.65;;;;;;;;;;6252818;28;20497;-87
2023/11/03 16:01:52;;;;;;;6.43;1.60;;;;;;;;;;6250437;28;20053;-86
2023/11/03 16:04:54;;;;;;;15.48;3.08;;;12.70;91.20;;;;;;6222448;28;20049;-91
2023/11/03 16:07:56;;;;;;;7.15;1.80;;;12.30;99.90;;;;;;6249064;28;20059;-93
2023/11/03 16:10:58;;;;;;;13.43;2.22;;;;;;;;;;6209445;28;20493;-92
2023/11/03 16:14:01;;;;;;;11.70;1.95;;;;;;;;;;6237483;28;20049;-89